Time;durP1;ratioP1;P1;durP2;ratioP2;P2;SDS_P1;SDS_P2;PMS_P1;PMS_P2;Temp;Humidity;BMP_temperature;BMP_pressure;BME280_temperature;BME280_humidity;BME280_pressure;Samples;Min_cycle;Max_cycle;Signal;HPM_P1;HPM_P2
2022/03/04 00:05:53;;;;;;;29.37;15.50;;;2.30;68.00;;;;;;6283329;22;20088;-90
2022/03/04 00:08:19;;;;;;;31.60;16.47;;;2.20;67.70;;;;;;6283413;22;20433;-90
2022/03/04 00:10:45;;;;;;;29.73;16.17;;;2.20;68.30;;;;;;6283611;22;20301;-90
2022/03/04 00:13:10;;;;;;;31.03;16.13;;;2.20;68.10;;;;;;6284531;22;20023;-89
2022/03/04 00:15:36;;;;;;;31.13;16.70;;;2.10;68.00;;;;;;6285140;22;20046;-90
2022/03/04 00:18:02;;;;;;;26.30;15.17;;;2.10;68.10;;;;;;6312382;22;20019;-90
2022/03/04 00:20:27;;;;;;;33.00;17.30;;;2.10;68.20;;;;;;6312045;22;20022;-89
2022/03/04 00:22:53;;;;;;;34.33;17.47;;;2.00;68.20;;;;;;6284434;22;20098;-89
2022/03/04 00:25:19;;;;;;;33.53;15.43;;;2.00;68.30;;;;;;6283392;22;20579;-90
2022/03/04 00:27:45;;;;;;;30.40;15.30;;;2.00;68.40;;;;;;6311896;22;20049;-89
2022/03/04 00:33:52;;;;;;;27.30;14.27;;;2.10;68.80;;;;;;6310548;22;20026;-89
2022/03/04 00:36:22;;;;;;;24.77;14.37;;;2.10;68.60;;;;;;6312003;22;20424;-90
2022/03/04 00:38:48;;;;;;;26.97;14.03;;;2.10;68.70;;;;;;6310742;22;20015;-89
2022/03/04 00:41:15;;;;;;;25.87;14.03;;;2.10;68.70;;;;;;6283496;22;20019;-89
2022/03/04 00:43:43;;;;;;;27.33;15.57;;;2.20;68.80;;;;;;6310851;22;20011;-90
2022/03/04 00:46:28;;;;;;;26.43;13.63;;;2.20;68.70;;;;;;6310502;22;20022;-89
2022/03/04 00:48:54;;;;;;;26.13;13.70;;;2.30;68.70;;;;;;6310302;22;20056;-90
2022/03/04 00:51:20;;;;;;;25.30;13.87;;;2.40;68.50;;;;;;6310820;22;20007;-89
2022/03/04 00:53:46;;;;;;;26.17;14.30;;;2.40;68.30;;;;;;6310575;22;20011;-89
2022/03/04 00:56:12;;;;;;;25.20;13.30;;;2.50;68.20;;;;;;6283617;22;20053;-89
2022/03/04 00:58:40;;;;;;;24.97;14.73;;;2.50;68.10;;;;;;6310708;22;20094;-89
2022/03/04 01:04:46;;;;;;;23.53;12.83;;;2.70;67.70;;;;;;6310571;22;20038;-89
2022/03/04 01:07:12;;;;;;;23.97;12.93;;;2.70;67.30;;;;;;6283045;22;20011;-89
2022/03/04 01:09:38;;;;;;;21.50;12.93;;;2.80;67.20;;;;;;6310682;22;20049;-88
2022/03/04 01:12:05;;;;;;;23.00;13.67;;;2.80;66.90;;;;;;6283314;22;20023;-89
2022/03/04 01:14:31;;;;;;;24.77;12.77;;;2.90;66.60;;;;;;6310798;22;20065;-89
2022/03/04 01:17:34;;;;;;;23.20;13.50;;;2.90;66.20;;;;;;6283756;22;20015;-89
2022/03/04 01:20:01;;;;;;;22.77;13.33;;;2.90;65.80;;;;;;6312078;22;20026;-87
2022/03/04 01:22:26;;;;;;;23.17;12.53;;;2.90;65.80;;;;;;6283628;22;20030;-88
2022/03/04 01:24:53;;;;;;;22.53;12.47;;;2.90;65.80;;;;;;6312705;22;20019;-89
2022/03/04 01:27:19;;;;;;;22.67;12.37;;;2.90;65.70;;;;;;6317531;22;20088;-89
2022/03/04 01:29:45;;;;;;;22.50;13.03;;;3.00;65.70;;;;;;6315149;22;20339;-89
2022/03/04 01:32:11;;;;;;;19.67;12.03;;;3.00;65.70;;;;;;6285258;22;20019;-87
2022/03/04 01:34:37;;;;;;;22.13;12.43;;;3.00;65.50;;;;;;6313299;22;20325;-88
2022/03/04 01:37:03;;;;;;;22.20;11.83;;;3.00;65.40;;;;;;6312831;22;20016;-88
2022/03/04 01:39:29;;;;;;;18.13;11.67;;;3.00;65.20;;;;;;6317688;22;20069;-89
2022/03/04 01:41:55;;;;;;;23.57;12.60;;;2.90;64.80;;;;;;6290723;22;20435;-89
2022/03/04 01:44:21;;;;;;;18.20;10.57;;;2.90;64.50;;;;;;6317608;22;20011;-88
2022/03/04 01:46:47;;;;;;;22.67;12.23;;;2.90;64.10;;;;;;6288828;22;20019;-88
2022/03/04 01:49:13;;;;;;;20.67;11.97;;;2.90;63.90;;;;;;6286888;22;20029;-88
2022/03/04 01:51:38;;;;;;;20.77;10.80;;;2.80;63.80;;;;;;6314237;22;20012;-88
2022/03/04 01:54:04;;;;;;;19.03;10.40;;;2.70;63.80;;;;;;6311087;22;20022;-88
2022/03/04 01:56:30;;;;;;;18.17;10.50;;;2.60;63.90;;;;;;6307870;22;20018;-90
2022/03/04 01:58:56;;;;;;;21.20;10.90;;;2.50;64.00;;;;;;6310042;22;20019;-90
2022/03/04 02:01:40;;;;;;;18.53;11.17;;;2.30;64.20;;;;;;6315817;22;20399;-90
2022/03/04 02:04:06;;;;;;;17.50;10.13;;;2.20;64.60;;;;;;6330210;22;20018;-90
2022/03/04 02:06:32;;;;;;;17.23;9.67;;;2.10;64.70;;;;;;6286774;22;20090;-89
2022/03/04 02:08:57;;;;;;;21.17;9.63;;;2.00;64.90;;;;;;6281897;22;20011;-89
2022/03/04 02:11:23;;;;;;;17.30;9.40;;;1.90;65.10;;;;;;6256351;22;20023;-89
2022/03/04 02:13:49;;;;;;;20.27;11.00;;;1.80;65.50;;;;;;6312547;22;20023;-89
2022/03/04 02:16:27;;;;;;;17.47;9.63;;;1.70;65.90;;;;;;6309558;22;20072;-89
2022/03/04 02:18:53;;;;;;;16.50;9.77;;;1.70;66.20;;;;;;6284054;22;20038;-91
2022/03/04 02:21:22;;;;;;;17.37;10.30;;;1.60;66.80;;;;;;6311991;22;20023;-90
2022/03/04 02:23:48;;;;;;;18.80;9.97;;;1.60;66.60;;;;;;6311614;22;20052;-90
2022/03/04 02:26:14;;;;;;;21.17;10.43;;;1.50;66.70;;;;;;6290758;22;20031;-89
2022/03/04 02:28:40;;;;;;;18.60;10.07;;;1.40;66.80;;;;;;6294842;22;20015;-90
2022/03/04 02:31:06;;;;;;;17.70;9.40;;;1.30;67.20;;;;;;6310472;22;20319;-89
2022/03/04 02:33:31;;;;;;;19.10;10.33;;;1.30;67.50;;;;;;6309775;22;20458;-89
2022/03/04 02:35:57;;;;;;;19.33;10.73;;;1.20;67.70;;;;;;6309734;22;20093;-89
2022/03/04 02:38:23;;;;;;;18.47;9.87;;;1.20;68.00;;;;;;6309757;22;20097;-90
2022/03/04 02:40:49;;;;;;;19.17;10.20;;;1.10;68.10;;;;;;6309399;22;20536;-89
2022/03/04 02:43:14;;;;;;;18.27;10.40;;;1.10;68.20;;;;;;6309239;22;20011;-89
2022/03/04 02:45:58;;;;;;;19.40;10.70;;;1.10;68.70;;;;;;6307983;22;20011;-90
2022/03/04 02:48:24;;;;;;;21.33;11.50;;;1.00;68.60;;;;;;6309582;22;20015;-89
2022/03/04 02:50:50;;;;;;;21.70;11.40;;;0.90;68.60;;;;;;6282103;22;20015;-89
2022/03/04 02:53:16;;;;;;;19.60;10.77;;;0.90;68.70;;;;;;6309386;22;20015;-89
2022/03/04 02:55:41;;;;;;;22.47;11.50;;;0.90;68.90;;;;;;6308147;22;20022;-89
2022/03/04 02:58:07;;;;;;;22.07;11.33;;;0.80;69.30;;;;;;6309675;22;20019;-89
2022/03/04 03:00:34;;;;;;;20.37;11.93;;;0.80;70.10;;;;;;6310829;22;20457;-89
2022/03/04 03:03:00;;;;;;;24.13;12.40;;;0.90;69.80;;;;;;6284116;22;20053;-88
2022/03/04 03:05:25;;;;;;;25.63;12.03;;;0.70;70.20;;;;;;6310751;22;20015;-89
2022/03/04 03:07:51;;;;;;;20.77;11.60;;;0.60;70.40;;;;;;6282535;22;20012;-88
2022/03/04 03:10:17;;;;;;;23.50;11.73;;;0.60;70.40;;;;;;6308942;22;20015;-89
2022/03/04 03:12:42;;;;;;;19.53;10.77;;;0.60;70.50;;;;;;6308869;22;20021;-90
2022/03/04 03:15:09;;;;;;;23.70;11.40;;;0.50;70.60;;;;;;6309632;22;20428;-89
2022/03/04 03:17:35;;;;;;;22.60;12.00;;;0.50;70.50;;;;;;6309165;22;20090;-89
2022/03/04 03:20:03;;;;;;;23.90;12.60;;;0.50;70.80;;;;;;6309527;22;20434;-89
2022/03/04 03:22:28;;;;;;;25.67;11.90;;;0.40;71.20;;;;;;6309506;22;20022;-89
2022/03/04 03:24:54;;;;;;;20.63;11.20;;;0.40;70.80;;;;;;6282205;22;20015;-89
2022/03/04 03:27:20;;;;;;;22.50;12.47;;;0.40;70.90;;;;;;6294299;22;20334;-89
2022/03/04 03:29:46;;;;;;;24.93;12.17;;;0.40;71.00;;;;;;6280078;22;20102;-89
2022/03/04 03:32:12;;;;;;;23.80;11.53;;;0.30;71.10;;;;;;6306666;22;20019;-89
2022/03/04 03:34:39;;;;;;;22.70;11.57;;;0.40;71.10;;;;;;6336456;22;20021;-90
2022/03/04 03:37:05;;;;;;;23.80;13.03;;;0.30;71.10;;;;;;6271625;22;20050;-89
2022/03/04 03:39:30;;;;;;;28.20;13.07;;;0.30;71.10;;;;;;6290620;22;20018;-88
2022/03/04 03:41:56;;;;;;;21.60;11.97;;;0.30;71.30;;;;;;6289249;22;20020;-89
2022/03/04 03:44:22;;;;;;;25.07;12.90;;;0.30;71.20;;;;;;6317132;22;20018;-89
2022/03/04 03:47:25;;;;;;;23.00;12.50;;;0.30;71.30;;;;;;6316363;22;20011;-89
2022/03/04 03:49:50;;;;;;;22.77;12.17;;;0.20;71.30;;;;;;6316585;22;20022;-89
2022/03/04 03:52:16;;;;;;;23.97;13.07;;;0.20;71.30;;;;;;6316961;22;20098;-89
2022/03/04 03:54:42;;;;;;;25.37;12.70;;;0.20;71.50;;;;;;6321276;22;20067;-89
2022/03/04 03:57:09;;;;;;;25.67;12.70;;;0.20;71.30;;;;;;6306076;22;20011;-89
2022/03/04 03:59:35;;;;;;;25.63;13.63;;;0.20;71.50;;;;;;6306567;22;20054;-89
2022/03/04 04:02:02;;;;;;;24.87;12.73;;;0.20;71.40;;;;;;6307756;22;20011;-89
2022/03/04 04:04:33;;;;;;;20.60;12.23;;;0.10;71.30;;;;;;6335253;22;20006;-89
2022/03/04 04:07:08;;;;;;;27.90;13.63;;;0.10;71.40;;;;;;6307961;22;20011;-89
2022/03/04 04:09:34;;;;;;;27.33;13.88;;;0.10;71.70;;;;;;6308442;22;20019;-89
2022/03/04 04:11:59;;;;;;;27.47;13.90;;;0.10;71.80;;;;;;6306992;22;20083;-88
2022/03/04 04:14:26;;;;;;;25.57;13.33;;;0.10;71.60;;;;;;6334833;22;20034;-89
2022/03/04 04:16:52;;;;;;;28.20;12.97;;;0.10;71.50;;;;;;6307898;22;20007;-88
2022/03/04 04:19:18;;;;;;;24.03;13.00;;;0.00;71.50;;;;;;6335933;22;20042;-89
2022/03/04 04:21:44;;;;;;;29.53;14.93;;;0.00;71.60;;;;;;6306874;22;20026;-89
2022/03/04 04:24:10;;;;;;;27.90;13.90;;;0.00;71.60;;;;;;6280965;22;20019;-88
2022/03/04 04:26:36;;;;;;;24.13;13.03;;;0.00;71.80;;;;;;6333266;22;20015;-89
2022/03/04 04:29:03;;;;;;;26.50;13.63;;;0.00;71.80;;;;;;6305585;22;20003;-87
2022/03/04 04:31:30;;;;;;;27.93;13.13;;;0.00;71.80;;;;;;6332586;22;20015;-89
2022/03/04 04:33:55;;;;;;;30.73;14.20;;;0.00;71.90;;;;;;6305713;22;20494;-88
2022/03/04 04:36:21;;;;;;;23.43;12.03;;;0.00;72.00;;;;;;6331715;22;20043;-89
2022/03/04 04:38:47;;;;;;;26.97;13.73;;;0.10;72.00;;;;;;6304538;22;20026;-88
2022/03/04 04:41:13;;;;;;;24.37;13.47;;;0.10;72.10;;;;;;6288270;22;20011;-89
2022/03/04 04:43:38;;;;;;;25.40;13.30;;;0.10;72.00;;;;;;6295283;22;20057;-89
2022/03/04 04:46:04;;;;;;;23.10;11.63;;;0.20;72.10;;;;;;6321965;22;20015;-89
2022/03/04 04:48:31;;;;;;;27.40;14.53;;;0.20;72.10;;;;;;6318629;22;20015;-89
2022/03/04 04:50:59;;;;;;;26.37;13.07;;;0.20;72.00;;;;;;6288712;22;20025;-89
2022/03/04 04:53:28;;;;;;;24.83;12.17;;;0.30;72.00;;;;;;6287779;22;20007;-89
2022/03/04 04:55:54;;;;;;;24.33;12.63;;;0.30;71.80;;;;;;6287860;22;20451;-88
2022/03/04 04:58:20;;;;;;;23.53;12.63;;;0.40;71.80;;;;;;6314733;22;20018;-88
2022/03/04 05:00:50;;;;;;;25.13;12.53;;;0.40;71.60;;;;;;6285496;22;20018;-88
2022/03/04 05:03:34;;;;;;;22.37;12.63;;;0.40;71.40;;;;;;6309290;22;20014;-88
2022/03/04 05:06:00;;;;;;;23.17;13.40;;;0.50;71.20;;;;;;6310123;22;20015;-88
2022/03/04 05:08:27;;;;;;;26.57;13.43;;;0.50;70.90;;;;;;6282466;22;20015;-88
2022/03/04 05:10:54;;;;;;;26.37;13.63;;;0.50;70.70;;;;;;6309611;22;20011;-88
2022/03/04 05:13:19;;;;;;;27.07;14.03;;;0.50;70.50;;;;;;6308710;22;20019;-88
2022/03/04 05:15:45;;;;;;;21.90;12.60;;;0.50;70.20;;;;;;6308086;22;20018;-88
2022/03/04 05:18:11;;;;;;;24.10;13.40;;;0.40;70.00;;;;;;6307985;22;20065;-88
2022/03/04 05:20:37;;;;;;;26.90;14.73;;;0.40;69.90;;;;;;6280847;22;20398;-89
2022/03/04 05:23:03;;;;;;;23.57;13.73;;;0.40;69.90;;;;;;6280665;22;20011;-88
2022/03/04 05:25:29;;;;;;;25.73;14.73;;;0.30;69.70;;;;;;6308532;22;20011;-88
2022/03/04 05:27:54;;;;;;;27.27;14.80;;;0.30;69.70;;;;;;6307866;22;20499;-88
2022/03/04 05:30:20;;;;;;;24.33;13.27;;;0.20;69.70;;;;;;6280992;22;20086;-88
2022/03/04 05:32:46;;;;;;;25.17;14.57;;;0.10;69.60;;;;;;6295237;22;20019;-89
2022/03/04 05:35:11;;;;;;;25.43;14.03;;;0.10;69.70;;;;;;6318391;22;20041;-89
2022/03/04 05:37:37;;;;;;;27.17;15.23;;;0.00;69.70;;;;;;6309804;22;20011;-87
2022/03/04 05:40:04;;;;;;;26.93;14.83;;;-0.10;69.70;;;;;;6286283;22;20020;-89
2022/03/04 05:42:30;;;;;;;29.53;16.37;;;-0.10;69.90;;;;;;6293054;22;20011;-89
2022/03/04 05:44:56;;;;;;;26.17;15.53;;;-0.20;69.90;;;;;;6293760;22;20019;-88
2022/03/04 05:47:21;;;;;;;28.43;15.03;;;-0.20;70.00;;;;;;6292355;22;20024;-89
2022/03/04 05:49:47;;;;;;;30.17;16.07;;;-0.30;70.20;;;;;;6281392;22;20545;-89
2022/03/04 05:52:13;;;;;;;34.63;16.73;;;-0.30;70.30;;;;;;6309252;22;20443;-88
2022/03/04 05:54:38;;;;;;;28.90;16.43;;;-0.30;70.40;;;;;;6280412;22;20038;-88
2022/03/04 05:57:05;;;;;;;32.00;17.00;;;-0.40;70.50;;;;;;6307860;22;20026;-88
2022/03/04 05:59:30;;;;;;;33.43;17.37;;;-0.40;70.50;;;;;;6308330;22;20008;-88
2022/03/04 06:05:46;;;;;;;32.97;17.30;;;-0.50;71.10;;;;;;6309138;22;20013;-92
2022/03/04 06:08:12;;;;;;;36.53;17.97;;;-0.50;71.20;;;;;;6281718;22;20011;-91
2022/03/04 06:10:37;;;;;;;34.20;17.57;;;-0.50;71.50;;;;;;6234624;22;1076186;-92
2022/03/04 06:13:03;;;;;;;36.40;19.57;;;-0.60;71.50;;;;;;6283234;22;20015;-91
2022/03/04 06:15:29;;;;;;;42.57;20.07;;;-0.60;71.80;;;;;;6310324;22;20440;-91
2022/03/04 06:21:35;;;;;;;35.50;18.27;;;-0.60;72.30;;;;;;6310060;22;20442;-92
2022/03/04 06:24:02;;;;;;;41.27;19.40;;;-0.60;72.30;;;;;;6310220;22;20015;-92
2022/03/04 06:26:27;;;;;;;42.47;21.70;;;-0.60;72.50;;;;;;6310296;22;20007;-92
2022/03/04 06:28:53;;;;;;;41.13;19.73;;;-0.60;72.80;;;;;;6310380;22;20878;-92
2022/03/04 06:31:19;;;;;;;38.27;19.80;;;-0.60;73.10;;;;;;6310384;22;20034;-92
2022/03/04 06:37:25;;;;;;;41.87;20.63;;;-0.60;73.00;;;;;;6310058;22;20391;-90
2022/03/04 06:39:51;;;;;;;40.63;19.50;;;-0.60;73.00;;;;;;6282358;22;20011;-91
2022/03/04 06:42:16;;;;;;;46.87;21.07;;;-0.60;73.30;;;;;;6283888;22;20019;-91
2022/03/04 06:44:42;;;;;;;41.73;21.03;;;-0.40;73.50;;;;;;6311945;22;20330;-92
2022/03/04 06:47:08;;;;;;;46.13;21.03;;;-0.60;73.40;;;;;;6282430;22;20021;-93
2022/03/04 06:49:35;;;;;;;44.23;21.10;;;-0.60;73.60;;;;;;6282600;22;20033;-92
2022/03/04 06:52:01;;;;;;;44.67;21.03;;;-0.60;73.90;;;;;;6283088;22;20086;-91
2022/03/04 06:54:27;;;;;;;42.17;18.60;;;-0.60;73.80;;;;;;6309158;22;20047;-91
2022/03/04 06:56:52;;;;;;;45.30;22.30;;;-0.50;74.30;;;;;;6282165;22;20067;-93
2022/03/04 06:59:18;;;;;;;47.97;22.27;;;-0.60;74.50;;;;;;6309678;22;20360;-91
2022/03/04 07:02:30;;;;;;;48.13;23.27;;;-0.50;74.70;;;;;;6281812;22;20022;-91
2022/03/04 07:04:56;;;;;;;42.10;21.07;;;-0.50;74.50;;;;;;6282310;22;20023;-91
2022/03/04 07:07:21;;;;;;;43.40;20.23;;;-0.50;74.50;;;;;;6311199;22;20015;-90
2022/03/04 07:09:47;;;;;;;40.07;19.23;;;-0.50;74.40;;;;;;6284406;22;20442;-90
2022/03/04 07:12:13;;;;;;;41.83;21.60;;;-0.50;74.60;;;;;;6284137;22;20020;-94
2022/03/04 07:14:38;;;;;;;47.27;23.00;;;-0.40;74.70;;;;;;6314181;22;20358;-93
2022/03/04 07:17:04;;;;;;;43.00;20.77;;;-0.40;74.60;;;;;;6312444;22;20050;-92
2022/03/04 07:19:29;;;;;;;41.53;20.53;;;-0.40;74.60;;;;;;6301468;22;20022;-92
2022/03/04 07:21:55;;;;;;;42.20;20.23;;;-0.40;74.80;;;;;;6304095;22;20019;-92
2022/03/04 07:24:21;;;;;;;38.40;18.90;;;-0.30;75.20;;;;;;6328578;22;20014;-92
2022/03/04 07:26:46;;;;;;;47.53;23.53;;;-0.30;74.70;;;;;;6287350;22;20012;-92
2022/03/04 07:29:12;;;;;;;37.80;20.90;;;-0.30;74.60;;;;;;6285165;22;20047;-92
2022/03/04 07:31:38;;;;;;;43.47;22.03;;;-0.30;74.70;;;;;;6285109;22;20118;-92
2022/03/04 07:34:23;;;;;;;44.47;22.17;;;-0.30;75.30;;;;;;6284558;22;20019;-92
2022/03/04 07:36:50;;;;;;;46.97;22.43;;;-0.30;75.60;;;;;;6284232;22;20111;-92
2022/03/04 07:39:16;;;;;;;43.63;21.53;;;-0.30;74.90;;;;;;6284504;22;20467;-92
2022/03/04 07:41:41;;;;;;;41.77;21.53;;;-0.20;75.20;;;;;;6312149;22;20019;-93
2022/03/04 07:44:07;;;;;;;44.33;23.20;;;-0.30;74.90;;;;;;6314989;22;20053;-92
2022/03/04 07:46:33;;;;;;;47.00;22.67;;;-0.30;74.90;;;;;;6317674;22;20053;-92
2022/03/04 07:48:59;;;;;;;42.67;20.77;;;-0.20;75.10;;;;;;6323298;22;20054;-93
2022/03/04 07:51:25;;;;;;;46.50;22.70;;;-0.20;75.00;;;;;;6336760;22;20011;-91
2022/03/04 07:53:51;;;;;;;48.03;22.07;;;-0.20;75.10;;;;;;6310782;22;20039;-91
2022/03/04 07:56:16;;;;;;;47.73;21.57;;;-0.20;75.10;;;;;;6323389;22;20358;-93
2022/03/04 07:58:42;;;;;;;45.00;23.37;;;-0.30;75.10;;;;;;6284626;22;20018;-92
2022/03/04 08:01:08;;;;;;;46.00;22.00;;;-0.30;75.10;;;;;;6283941;22;20011;-93
2022/03/04 08:03:35;;;;;;;50.80;22.53;;;-0.30;75.40;;;;;;6311618;22;20019;-92
2022/03/04 08:06:00;;;;;;;45.73;22.00;;;-0.30;75.40;;;;;;6312456;22;20011;-92
2022/03/04 08:08:26;;;;;;;49.63;22.30;;;-0.20;75.80;;;;;;6311950;22;20015;-91
2022/03/04 08:10:53;;;;;;;48.20;22.73;;;-0.20;75.30;;;;;;6311384;22;20011;-91
2022/03/04 08:13:19;;;;;;;45.03;22.20;;;-0.20;75.40;;;;;;6284260;22;20343;-93
2022/03/04 08:15:45;;;;;;;45.03;21.83;;;-0.20;75.60;;;;;;6311779;22;20012;-92
2022/03/04 08:18:49;;;;;;;50.80;23.73;;;-0.10;75.90;;;;;;6283625;22;20022;-93
2022/03/04 08:21:15;;;;;;;45.43;22.33;;;-0.20;75.80;;;;;;6311284;22;20019;-91
2022/03/04 08:23:40;;;;;;;49.13;23.83;;;-0.20;75.90;;;;;;6311870;22;20007;-92
2022/03/04 08:26:06;;;;;;;48.30;24.43;;;-0.20;75.70;;;;;;6284106;22;20050;-91
2022/03/04 08:28:35;;;;;;;47.97;23.23;;;-0.20;75.70;;;;;;6312155;22;20019;-92
2022/03/04 08:31:01;;;;;;;44.77;22.33;;;-0.20;75.90;;;;;;6312204;22;20053;-91
2022/03/04 08:33:29;;;;;;;49.00;23.03;;;-0.20;75.80;;;;;;6258408;22;20025;-91
2022/03/04 08:35:55;;;;;;;44.33;23.33;;;-0.10;76.00;;;;;;6311992;22;20008;-91
2022/03/04 08:38:20;;;;;;;42.43;21.70;;;-0.10;76.00;;;;;;6283868;22;20149;-92
2022/03/04 08:40:46;;;;;;;44.53;22.63;;;-0.10;75.90;;;;;;6311271;22;20015;-91
2022/03/04 08:43:12;;;;;;;43.10;22.23;;;0.00;76.10;;;;;;6284156;22;20098;-90
2022/03/04 08:45:38;;;;;;;43.47;21.27;;;0.00;76.30;;;;;;6283726;22;20051;-92
2022/03/04 08:51:45;;;;;;;39.73;20.43;;;0.20;76.40;;;;;;6321053;22;20052;-91
2022/03/04 08:54:11;;;;;;;45.20;22.67;;;0.20;76.10;;;;;;6335727;22;20003;-91
2022/03/04 08:56:37;;;;;;;41.57;21.87;;;0.30;76.10;;;;;;6293866;22;20019;-92
2022/03/04 08:59:03;;;;;;;43.93;22.57;;;0.30;76.20;;;;;;6284071;22;20061;-92
2022/03/04 09:01:29;;;;;;;41.63;21.90;;;0.30;76.10;;;;;;6283317;22;20093;-93
2022/03/04 09:03:56;;;;;;;42.60;23.07;;;0.40;76.10;;;;;;6310831;22;20030;-92
2022/03/04 09:06:21;;;;;;;43.87;22.97;;;0.40;76.10;;;;;;6310557;22;20366;-93
2022/03/04 09:08:47;;;;;;;45.37;24.43;;;0.50;76.00;;;;;;6283535;22;20015;-91
2022/03/04 09:11:13;;;;;;;44.77;22.73;;;0.50;75.90;;;;;;6310590;22;20439;-92
2022/03/04 09:13:39;;;;;;;41.20;21.80;;;0.60;75.90;;;;;;6283378;22;20019;-92
2022/03/04 09:16:05;;;;;;;42.70;22.40;;;0.60;75.90;;;;;;6283691;22;20015;-92
2022/03/04 09:18:31;;;;;;;38.70;21.50;;;0.70;75.90;;;;;;6283263;22;20488;-92
2022/03/04 09:20:57;;;;;;;41.30;21.13;;;0.70;75.90;;;;;;6284044;22;20023;-92
2022/03/04 09:23:22;;;;;;;38.20;22.47;;;0.80;76.00;;;;;;6283324;22;20019;-91
2022/03/04 09:25:49;;;;;;;41.43;22.00;;;0.80;76.20;;;;;;6310766;22;20015;-91
2022/03/04 09:28:15;;;;;;;35.10;19.80;;;0.90;75.80;;;;;;6283481;22;20022;-90
2022/03/04 09:30:41;;;;;;;39.73;20.90;;;0.90;75.70;;;;;;6283295;22;20108;-91
2022/03/04 09:36:48;;;;;;;36.47;20.27;;;1.00;75.30;;;;;;6311880;22;20110;-91
2022/03/04 09:39:15;;;;;;;40.57;21.63;;;1.10;75.30;;;;;;6284253;22;20042;-91
2022/03/04 09:41:44;;;;;;;38.87;21.60;;;1.20;75.40;;;;;;6311680;22;20086;-91
2022/03/04 09:44:12;;;;;;;38.07;21.37;;;1.30;75.30;;;;;;6285340;22;20029;-93
2022/03/04 09:46:40;;;;;;;36.93;21.57;;;1.40;75.20;;;;;;6287174;22;20019;-90
2022/03/04 09:49:07;;;;;;;34.93;20.07;;;1.50;75.10;;;;;;6314437;22;20082;-91
2022/03/04 09:51:33;;;;;;;35.87;19.97;;;1.60;75.50;;;;;;6313509;22;20015;-91
2022/03/04 09:54:00;;;;;;;32.90;20.00;;;1.70;75.10;;;;;;6314421;22;20061;-91
2022/03/04 09:56:25;;;;;;;30.90;18.40;;;1.80;75.00;;;;;;6318676;22;20026;-92
2022/03/04 09:58:51;;;;;;;37.73;19.07;;;1.90;74.50;;;;;;6317702;22;20050;-91
2022/03/04 10:01:17;;;;;;;33.70;19.13;;;2.00;73.70;;;;;;6318996;22;20496;-91
2022/03/04 10:03:48;;;;;;;31.70;19.07;;;2.00;72.90;;;;;;6318763;22;20012;-92
2022/03/04 10:06:15;;;;;;;31.23;19.00;;;2.00;72.70;;;;;;6283238;22;20054;-91
2022/03/04 10:08:45;;;;;;;32.13;19.80;;;2.10;72.90;;;;;;6310538;22;20086;-91
2022/03/04 10:11:11;;;;;;;32.37;20.60;;;2.20;72.80;;;;;;6310447;22;20011;-92
2022/03/04 10:13:46;;;;;;;33.00;20.03;;;2.30;72.60;;;;;;6312169;22;20462;-92
2022/03/04 10:16:25;;;;;;;38.33;19.80;;;2.30;72.30;;;;;;6284634;22;20012;-91
2022/03/04 10:22:32;;;;;;;35.67;19.37;;;2.60;71.60;;;;;;6310512;22;20020;-89
2022/03/04 10:24:58;;;;;;;33.33;19.33;;;2.70;71.30;;;;;;6310868;22;20019;-89
2022/03/04 10:27:24;;;;;;;33.37;20.83;;;2.80;70.80;;;;;;6285023;22;20050;-89
2022/03/04 10:29:50;;;;;;;32.60;19.67;;;2.80;70.70;;;;;;6312896;22;20334;-89
2022/03/04 10:32:20;;;;;;;38.00;21.50;;;2.90;70.90;;;;;;6285413;22;20054;-88
2022/03/04 10:34:49;;;;;;;35.50;21.37;;;3.00;70.80;;;;;;6312975;22;20053;-89
2022/03/04 10:37:36;;;;;;;32.40;21.30;;;3.10;70.60;;;;;;6285802;22;20046;-90
2022/03/04 10:40:08;;;;;;;33.70;20.17;;;3.20;70.70;;;;;;6286557;22;20011;-90
2022/03/04 10:42:45;;;;;;;34.60;20.37;;;3.30;70.10;;;;;;6315837;22;20026;-91
2022/03/04 10:45:15;;;;;;;32.33;20.47;;;3.40;69.60;;;;;;6286912;22;20326;-89
2022/03/04 10:47:49;;;;;;;36.77;21.53;;;3.50;69.20;;;;;;6317157;22;20022;-89
2022/03/04 10:50:17;;;;;;;38.40;21.48;;;3.60;69.30;;;;;;6315502;22;20015;-88
2022/03/04 10:53:07;;;;;;;34.97;21.05;;;3.60;69.20;;;;;;6314654;22;20018;-89
2022/03/04 10:55:49;;;;;;;34.58;21.27;;;3.70;68.40;;;;;;6288158;22;20027;-91
2022/03/04 10:58:19;;;;;;;35.40;21.27;;;3.80;68.40;;;;;;6314597;22;20022;-89
2022/03/04 11:00:50;;;;;;;34.08;21.08;;;3.80;68.20;;;;;;6287275;22;20015;-90
2022/03/04 11:03:17;;;;;;;36.60;21.50;;;3.90;67.80;;;;;;6285356;22;20070;-89
2022/03/04 11:05:43;;;;;;;33.95;19.67;;;4.00;68.30;;;;;;6284717;22;20015;-88
2022/03/04 11:08:10;;;;;;;32.72;20.58;;;4.10;67.70;;;;;;6284657;22;20051;-90
2022/03/04 11:10:35;;;;;;;30.92;18.65;;;4.20;67.00;;;;;;6286369;22;20019;-89
2022/03/04 11:13:04;;;;;;;32.70;19.17;;;4.20;66.80;;;;;;6289454;22;20047;-89
2022/03/04 11:15:32;;;;;;;32.50;20.60;;;4.30;67.00;;;;;;6286957;22;20090;-90
2022/03/04 11:18:03;;;;;;;30.20;20.05;;;4.40;67.20;;;;;;6314295;22;20015;-90
2022/03/04 11:20:29;;;;;;;30.67;19.58;;;4.50;67.20;;;;;;6287572;22;20053;-89
2022/03/04 11:22:54;;;;;;;33.67;20.80;;;4.50;67.40;;;;;;6315567;22;20011;-89
2022/03/04 11:25:22;;;;;;;29.77;19.23;;;4.60;67.30;;;;;;6287827;22;20011;-89
2022/03/04 11:27:51;;;;;;;31.70;20.13;;;4.70;67.00;;;;;;6312756;22;20023;-90
2022/03/04 11:30:38;;;;;;;29.27;19.38;;;4.70;66.10;;;;;;6314668;22;20082;-89
2022/03/04 11:33:11;;;;;;;31.75;19.25;;;4.80;65.40;;;;;;6313143;22;20071;-88
2022/03/04 11:35:43;;;;;;;32.60;19.45;;;4.80;64.60;;;;;;6311674;22;20033;-86
2022/03/04 11:38:12;;;;;;;32.70;19.50;;;4.90;64.40;;;;;;6284019;22;20097;-88
2022/03/04 11:40:49;;;;;;;30.85;19.60;;;4.90;64.50;;;;;;6284000;22;20145;-88
2022/03/04 11:43:16;;;;;;;32.80;20.25;;;5.00;64.40;;;;;;6312510;22;20019;-89
2022/03/04 11:45:42;;;;;;;31.83;20.35;;;5.10;65.10;;;;;;6284244;22;20019;-87
2022/03/04 11:48:11;;;;;;;29.27;19.35;;;5.20;65.40;;;;;;6283138;22;20007;-88
2022/03/04 11:50:58;;;;;;;26.15;17.90;;;5.30;64.90;;;;;;6284272;22;20053;-88
2022/03/04 11:53:25;;;;;;;28.77;17.92;;;5.30;62.90;;;;;;6286257;22;20061;-89
2022/03/04 11:56:14;;;;;;;28.10;17.70;;;5.30;62.70;;;;;;6316072;22;20124;-88
2022/03/04 11:59:18;;;;;;;30.38;18.85;;;5.40;62.80;;;;;;6286047;22;20051;-88
2022/03/04 12:01:45;;;;;;;30.70;18.95;;;5.40;63.20;;;;;;6310642;22;20023;-89
2022/03/04 12:07:35;;;;;;;29.58;18.17;;;5.60;63.80;;;;;;6318895;22;20090;-88
2022/03/04 12:10:03;;;;;;;33.50;19.33;;;5.70;63.10;;;;;;6323156;22;20328;-87
2022/03/04 12:12:29;;;;;;;32.63;19.92;;;5.80;62.50;;;;;;6304190;22;20003;-88
2022/03/04 12:15:15;;;;;;;27.58;18.23;;;5.80;62.40;;;;;;6328419;22;20023;-88
2022/03/04 12:17:59;;;;;;;28.02;18.00;;;5.90;61.90;;;;;;6293257;22;20015;-88
2022/03/04 12:20:40;;;;;;;28.30;18.02;;;5.90;59.80;;;;;;6286983;22;20011;-87
2022/03/04 12:23:14;;;;;;;29.45;18.27;;;5.90;60.90;;;;;;6286429;22;20057;-87
2022/03/04 12:25:52;;;;;;;29.33;19.70;;;5.90;61.30;;;;;;6284341;22;20431;-88
2022/03/04 12:28:20;;;;;;;26.77;18.13;;;6.00;61.80;;;;;;6282516;22;20096;-85
2022/03/04 12:31:01;;;;;;;29.70;18.90;;;6.10;62.20;;;;;;6282483;22;20045;-85
2022/03/04 12:33:36;;;;;;;27.80;16.92;;;6.20;62.10;;;;;;6308847;22;20015;-86
2022/03/04 12:36:04;;;;;;;26.25;17.30;;;6.20;61.50;;;;;;6311806;22;20063;-87
2022/03/04 12:38:39;;;;;;;24.17;15.63;;;6.30;60.90;;;;;;6287088;22;20090;-87
2022/03/04 12:41:06;;;;;;;25.10;17.27;;;6.30;59.50;;;;;;6312654;22;20022;-87
2022/03/04 12:43:31;;;;;;;27.88;17.85;;;6.40;59.90;;;;;;6311114;22;20039;-87
2022/03/04 12:45:57;;;;;;;25.80;15.90;;;6.50;60.60;;;;;;6282940;22;20015;-86
2022/03/04 12:48:23;;;;;;;27.17;16.92;;;6.50;59.90;;;;;;6310377;22;20053;-87
2022/03/04 12:50:49;;;;;;;28.55;17.17;;;6.60;59.10;;;;;;6309728;22;20014;-87
2022/03/04 12:53:24;;;;;;;25.58;16.60;;;6.70;59.20;;;;;;6282582;22;20015;-87
2022/03/04 12:55:57;;;;;;;22.58;16.10;;;6.70;58.80;;;;;;6311293;22;20098;-87
2022/03/04 12:58:37;;;;;;;22.42;15.32;;;6.80;59.30;;;;;;6282611;22;20382;-87
2022/03/04 13:01:05;;;;;;;26.17;15.75;;;6.80;58.40;;;;;;6283173;22;20061;-87
2022/03/04 13:03:35;;;;;;;22.40;14.25;;;6.90;58.20;;;;;;6281927;22;20366;-87
2022/03/04 13:06:03;;;;;;;18.77;12.77;;;6.90;58.20;;;;;;6309269;22;20137;-85
2022/03/04 13:08:31;;;;;;;18.23;12.38;;;7.00;58.00;;;;;;6309812;22;20092;-87
2022/03/04 13:11:10;;;;;;;16.58;11.57;;;7.00;57.30;;;;;;6309442;22;20479;-87
2022/03/04 13:13:52;;;;;;;18.23;10.82;;;7.00;56.30;;;;;;6311127;22;20012;-87
2022/03/04 13:16:40;;;;;;;18.45;11.60;;;7.10;55.80;;;;;;6282692;22;20023;-87
2022/03/04 13:19:08;;;;;;;14.88;9.50;;;7.10;56.10;;;;;;6283329;22;20051;-87